Time;durP1;ratioP1;P1;durP2;ratioP2;P2;SDS_P1;SDS_P2;PMS_P1;PMS_P2;Temp;Humidity;BMP_temperature;BMP_pressure;BME280_temperature;BME280_humidity;BME280_pressure;Samples;Min_cycle;Max_cycle;Signal;HPM_P1;HPM_P2
2022/03/08 00:01:55;;;;;;;14.70;5.30;;;;;;;-1.91;100.00;100782.76;104875;1274;73728;-75
2022/03/08 00:04:43;;;;;;;11.90;4.10;;;;;;;-1.85;100.00;100784.94;104671;1273;68156;-75
2022/03/08 00:07:30;;;;;;;11.80;4.20;;;;;;;-1.83;100.00;100784.39;104942;1274;73028;-76
2022/03/08 00:10:18;;;;;;;11.20;4.10;;;;;;;-1.83;100.00;100775.49;103983;1273;1003915;-75
2022/03/08 00:13:05;;;;;;;11.00;4.20;;;;;;;-1.81;100.00;100776.87;104599;1274;1003013;-75
2022/03/08 00:15:53;;;;;;;12.10;3.80;;;;;;;-1.81;100.00;100776.17;105069;1273;73187;-76
2022/03/08 00:18:44;;;;;;;13.40;5.00;;;;;;;-1.79;100.00;100785.35;104981;1274;68646;-77
2022/03/08 00:21:31;;;;;;;13.50;4.60;;;;;;;-1.76;100.00;100786.36;105117;1273;73019;-76
2022/03/08 00:24:19;;;;;;;11.90;4.20;;;;;;;-1.73;100.00;100790.13;104902;1274;59735;-77
2022/03/08 00:27:11;;;;;;;12.40;4.50;;;;;;;-1.71;100.00;100789.40;105106;1274;59514;-77
2022/03/08 00:30:01;;;;;;;13.50;4.60;;;;;;;-1.68;100.00;100798.42;105164;1274;72019;-77
2022/03/08 00:32:52;;;;;;;12.60;4.60;;;;;;;-1.65;100.00;100800.47;105024;1272;67798;-76
2022/03/08 00:35:39;;;;;;;14.60;4.90;;;;;;;-1.63;100.00;100798.17;105094;1274;72972;-77
2022/03/08 00:38:26;;;;;;;11.60;4.00;;;;;;;-1.61;100.00;100790.65;104944;1274;59777;-76
2022/03/08 00:41:14;;;;;;;11.80;4.00;;;;;;;-1.61;100.00;100789.25;105266;1273;59607;-77
2022/03/08 00:44:03;;;;;;;9.40;3.80;;;;;;;-1.60;100.00;100790.98;104987;1273;73134;-75
2022/03/08 00:46:53;;;;;;;11.00;3.80;;;;;;;-1.58;100.00;100782.09;104764;1273;67848;-75
2022/03/08 00:49:41;;;;;;;14.60;4.30;;;;;;;-1.57;100.00;100785.19;104842;1274;71927;-72
2022/03/08 00:52:32;;;;;;;12.50;4.00;;;;;;;-1.57;100.00;100783.27;104949;1274;59783;-75
2022/03/08 00:55:22;;;;;;;11.70;3.80;;;;;;;-1.56;100.00;100783.27;104721;1274;60861;-74
2022/03/08 00:58:09;;;;;;;11.60;3.90;;;;;;;-1.56;100.00;100782.74;104851;1274;73511;-74
2022/03/08 01:00:57;;;;;;;14.70;3.70;;;;;;;-1.54;100.00;100781.83;105221;1273;66826;-75
2022/03/08 01:03:44;;;;;;;12.60;4.00;;;;;;;-1.53;100.00;100782.86;104723;1274;73293;-75
2022/03/08 01:06:32;;;;;;;10.10;3.70;;;;;;;-1.50;100.00;100779.34;104735;1274;59691;-75
2022/03/08 01:09:19;;;;;;;10.60;3.80;;;;;;;-1.49;100.00;100782.45;104889;1274;61082;-75
2022/03/08 01:12:08;;;;;;;8.30;3.30;;;;;;;-1.47;100.00;100782.42;104596;1273;71933;-74
2022/03/08 01:14:57;;;;;;;10.80;3.20;;;;;;;-1.46;100.00;100788.85;105042;1274;66889;-75
2022/03/08 01:17:47;;;;;;;7.40;2.40;;;;;;;-1.46;100.00;100787.09;104796;1274;71831;-75
2022/03/08 01:20:33;;;;;;;12.40;3.40;;;;;;;-1.46;100.00;100780.66;105304;1274;59719;-76
2022/03/08 01:23:21;;;;;;;8.60;3.10;;;;;;;-1.46;100.00;100769.70;104826;1273;60241;-75
2022/03/08 01:26:08;;;;;;;8.80;2.90;;;;;;;-1.49;100.00;100765.05;104578;1274;71994;-76
2022/03/08 01:28:56;;;;;;;11.70;3.40;;;;;;;-1.50;100.00;100769.77;104992;1274;68076;-76
2022/03/08 01:31:47;;;;;;;10.20;3.50;;;;;;;-1.52;100.00;100773.80;104966;1273;73411;-75
2022/03/08 01:34:36;;;;;;;10.00;3.50;;;;;;;-1.54;100.00;100764.80;105099;1275;59536;-76
2022/03/08 01:37:23;;;;;;;8.90;3.20;;;;;;;-1.56;100.00;100762.38;104777;1275;59678;-76
2022/03/08 01:40:15;;;;;;;11.20;3.40;;;;;;;-1.59;100.00;100762.08;104694;1274;73413;-75
2022/03/08 01:43:02;;;;;;;9.70;3.30;;;;;;;-1.59;100.00;100763.48;104838;1274;66618;-76
2022/03/08 01:45:50;;;;;;;10.80;3.80;;;;;;;-1.61;100.00;100764.55;104922;1274;73277;-75
2022/03/08 01:48:37;;;;;;;10.10;3.50;;;;;;;-1.63;100.00;100763.88;104780;1273;59699;-76
2022/03/08 01:51:24;;;;;;;10.10;3.50;;;;;;;-1.63;100.00;100767.55;104744;1274;59679;-76
2022/03/08 01:54:11;;;;;;;10.10;3.70;;;;;;;-1.65;100.00;100760.95;105018;1276;72561;-76
2022/03/08 01:57:01;;;;;;;10.00;3.80;;;;;;;-1.66;100.00;100756.27;104901;1274;67923;-76
2022/03/08 01:59:48;;;;;;;9.90;3.40;;;;;;;-1.68;100.00;100753.18;105035;1274;71579;-75
2022/03/08 02:02:35;;;;;;;12.00;3.60;;;;;;;-1.72;100.00;100744.19;105009;1274;59581;-75
2022/03/08 02:05:26;;;;;;;9.10;2.80;;;;;;;-1.77;100.00;100745.13;105197;1274;59616;-75
2022/03/08 02:08:13;;;;;;;9.50;2.80;;;;;;;-1.80;100.00;100745.52;104260;1275;1002973;-75
2022/03/08 02:11:01;;;;;;;11.90;3.80;;;;;;;-1.83;100.00;100740.02;105239;1273;66603;-75
2022/03/08 02:13:50;;;;;;;10.10;2.90;;;;;;;-1.86;100.00;100737.27;104820;1274;71666;-75
2022/03/08 02:16:37;;;;;;;10.90;3.20;;;;;;;-1.90;100.00;100739.77;104682;1275;60240;-75
2022/03/08 02:19:24;;;;;;;10.60;3.30;;;;;;;-1.93;100.00;100731.47;105183;1274;59765;-76
2022/03/08 02:22:11;;;;;;;8.70;3.40;;;;;;;-1.94;100.00;100738.61;105060;1274;73795;-76
2022/03/08 02:24:58;;;;;;;9.90;3.00;;;;;;;-1.95;100.00;100740.54;104747;1274;66667;-75
2022/03/08 02:27:53;;;;;;;10.40;3.20;;;;;;;-1.97;100.00;100748.56;104233;1274;1003725;-76
2022/03/08 02:30:40;;;;;;;10.60;3.10;;;;;;;-1.96;100.00;100757.78;104789;1274;59687;-76
2022/03/08 02:33:28;;;;;;;15.00;4.50;;;;;;;-1.96;100.00;100752.20;104717;1274;59627;-76
2022/03/08 02:36:15;;;;;;;54.10;17.60;;;;;;;-1.94;100.00;100749.75;105098;1272;73216;-74
2022/03/08 02:39:03;;;;;;;85.30;26.40;;;;;;;-1.95;100.00;100742.80;104272;1274;1003652;-76
2022/03/08 02:41:49;;;;;;;147.20;42.40;;;;;;;-1.96;100.00;100742.12;105038;1274;72754;-76
2022/03/08 02:44:36;;;;;;;134.10;41.00;;;;;;;-1.97;100.00;100745.79;105060;1275;59718;-75
2022/03/08 02:47:23;;;;;;;94.70;33.50;;;;;;;-1.98;100.00;100749.64;104948;1275;60335;-76
2022/03/08 02:50:14;;;;;;;97.90;29.10;;;;;;;-2.01;100.00;100749.86;104776;1276;73706;-75
2022/03/08 02:53:02;;;;;;;107.20;31.00;;;;;;;-2.04;100.00;100748.51;104953;1274;67315;-75
2022/03/08 02:55:50;;;;;;;140.90;40.60;;;;;;;-2.06;100.00;100757.22;105170;1275;72917;-75
2022/03/08 02:58:37;;;;;;;113.00;33.90;;;;;;;-2.08;100.00;100752.56;104045;1274;1002502;-73
2022/03/08 03:01:24;;;;;;;105.00;35.30;;;;;;;-2.07;100.00;100754.27;105190;1276;59643;-74
2022/03/08 03:04:15;;;;;;;86.00;30.90;;;;;;;-2.07;100.00;100754.11;104753;1274;72368;-75
2022/03/08 03:07:02;;;;;;;61.00;23.90;;;;;;;-2.07;100.00;100756.89;104468;1279;66214;-74
2022/03/08 03:09:50;;;;;;;30.00;12.80;;;;;;;-2.06;100.00;100755.14;104692;1278;71643;-75
2022/03/08 03:12:37;;;;;;;17.20;6.40;;;;;;;-2.04;100.00;100748.34;104769;1274;59758;-77
2022/03/08 03:15:27;;;;;;;13.20;4.30;;;;;;;-2.03;100.00;100747.98;104531;1274;60436;-76
2022/03/08 03:18:14;;;;;;;10.20;3.70;;;;;;;-2.05;100.00;100745.91;104734;1274;71352;-76
2022/03/08 03:21:02;;;;;;;10.50;3.40;;;;;;;-2.04;100.00;100748.85;104562;1275;67963;-76
2022/03/08 03:23:48;;;;;;;9.30;2.70;;;;;;;-2.03;100.00;100749.02;104626;1278;72933;-76
2022/03/08 03:26:36;;;;;;;7.60;2.50;;;;;;;-2.01;100.00;100746.38;105039;1274;59785;-77
2022/03/08 03:29:23;;;;;;;9.50;2.60;;;;;;;-2.01;100.00;100749.67;104737;1275;60531;-76
2022/03/08 03:32:10;;;;;;;6.90;1.80;;;;;;;-2.01;100.00;100756.65;104703;1274;72861;-76
2022/03/08 03:34:57;;;;;;;9.60;2.50;;;;;;;-2.03;100.00;100756.67;105005;1274;68348;-76
2022/03/08 03:37:47;;;;;;;8.00;2.40;;;;;;;-2.06;100.00;100755.13;104709;1274;73033;-76
2022/03/08 03:40:34;;;;;;;9.70;2.60;;;;;;;-2.08;100.00;100752.04;104050;1274;1003373;-75
2022/03/08 03:43:21;;;;;;;9.10;2.50;;;;;;;-2.11;100.00;100751.91;104810;1275;59758;-75
2022/03/08 03:46:09;;;;;;;7.90;2.80;;;;;;;-2.11;100.00;100756.26;104964;1275;73181;-75
2022/03/08 03:48:56;;;;;;;10.30;2.40;;;;;;;-2.11;100.00;100757.30;104776;1274;66818;-75
2022/03/08 03:51:46;;;;;;;8.60;2.50;;;;;;;-2.11;100.00;100752.42;104767;1277;71094;-74
2022/03/08 03:54:32;;;;;;;7.90;2.50;;;;;;;-2.11;100.00;100751.38;105196;1274;59669;-76
2022/03/08 03:57:20;;;;;;;11.30;2.60;;;;;;;-2.10;100.00;100753.46;104845;1274;59778;-76
2022/03/08 04:00:11;;;;;;;8.90;2.40;;;;;;;-2.09;100.00;100748.40;105008;1275;73194;-75
2022/03/08 04:02:58;;;;;;;9.00;2.50;;;;;;;-2.09;100.00;100752.39;104958;1276;66927;-74
2022/03/08 04:05:46;;;;;;;8.00;2.10;;;;;;;-2.08;100.00;100756.39;104881;1275;72958;-77
2022/03/08 04:08:35;;;;;;;9.90;2.20;;;;;;;-2.07;100.00;100760.37;104823;1274;59681;-77
2022/03/08 04:11:21;;;;;;;8.80;2.30;;;;;;;-2.07;100.00;100760.90;105020;1274;60565;-75
2022/03/08 04:14:09;;;;;;;7.80;2.10;;;;;;;-2.06;100.00;100766.61;104716;1274;71718;-75
2022/03/08 04:16:56;;;;;;;7.60;2.30;;;;;;;-2.06;100.00;100768.88;104913;1274;68260;-75
2022/03/08 04:19:43;;;;;;;7.90;2.10;;;;;;;-2.08;100.00;100770.48;104867;1274;71551;-76
2022/03/08 04:22:30;;;;;;;8.30;2.40;;;;;;;-2.10;100.00;100772.94;104867;1274;59841;-74
2022/03/08 04:25:17;;;;;;;9.00;2.30;;;;;;;-2.12;100.00;100770.54;104731;1275;59644;-75
2022/03/08 04:28:06;;;;;;;6.60;2.20;;;;;;;-2.15;100.00;100769.88;105046;1274;72144;-74
2022/03/08 04:30:53;;;;;;;9.20;2.50;;;;;;;-2.17;100.00;100770.59;104694;1275;66464;-75
2022/03/08 04:33:40;;;;;;;9.30;3.00;;;;;;;-2.17;100.00;100774.77;105198;1275;73134;-76
2022/03/08 04:36:27;;;;;;;10.10;2.90;;;;;;;-2.19;100.00;100771.84;104972;1274;59682;-75
2022/03/08 04:39:16;;;;;;;10.30;3.00;;;;;;;-2.18;100.00;100774.27;104941;1273;61262;-76
2022/03/08 04:42:04;;;;;;;7.80;2.20;;;;;;;-2.19;100.00;100770.98;104937;1275;73566;-76
2022/03/08 04:44:51;;;;;;;9.00;2.60;;;;;;;-2.19;100.00;100772.54;104978;1274;66999;-76
2022/03/08 04:47:39;;;;;;;9.40;2.60;;;;;;;-2.19;100.00;100766.96;104877;1276;71569;-77
2022/03/08 04:50:29;;;;;;;9.80;2.60;;;;;;;-2.20;100.00;100760.56;105235;1274;59867;-77
2022/03/08 04:53:16;;;;;;;7.60;2.30;;;;;;;-2.20;100.00;100760.73;105258;1274;59668;-75
2022/03/08 04:56:04;;;;;;;7.30;2.50;;;;;;;-2.22;100.00;100759.37;104915;1274;71394;-75
2022/03/08 04:58:52;;;;;;;8.70;2.50;;;;;;;-2.22;100.00;100761.45;104907;1274;66700;-76
2022/03/08 05:01:44;;;;;;;10.00;2.50;;;;;;;-2.24;100.00;100765.30;105161;1274;72811;-76
2022/03/08 05:04:32;;;;;;;9.50;2.90;;;;;;;-2.27;100.00;100766.23;104613;1275;59775;-74
2022/03/08 05:07:20;;;;;;;8.80;2.60;;;;;;;-2.29;100.00;100769.38;104774;1274;60561;-76
2022/03/08 05:10:10;;;;;;;10.40;2.70;;;;;;;-2.32;100.00;100768.38;105154;1274;74098;-75
2022/03/08 05:12:59;;;;;;;9.30;3.10;;;;;;;-2.29;100.00;100769.20;105311;1274;68072;-75
2022/03/08 05:15:48;;;;;;;7.10;2.20;;;;;;;-2.28;100.00;100771.80;105231;1277;71747;-76
2022/03/08 05:18:35;;;;;;;10.70;3.60;;;;;;;-2.23;100.00;100775.90;104661;1274;1002581;-74
2022/03/08 05:21:23;;;;;;;8.40;3.00;;;;;;;-2.17;100.00;100774.42;105111;1275;59608;-77
2022/03/08 05:24:10;;;;;;;10.80;4.00;;;;;;;-2.10;100.00;100776.59;105101;1274;72206;-78
2022/03/08 05:26:59;;;;;;;11.60;4.20;;;;;;;-2.03;100.00;100781.02;105364;1271;68602;-76
2022/03/08 05:29:47;;;;;;;13.50;4.40;;;;;;;-1.95;100.00;100782.45;105000;1271;72955;-76
2022/03/08 05:32:34;;;;;;;16.80;6.40;;;;;;;-1.84;100.00;100788.73;105375;1271;59707;-76
2022/03/08 05:35:22;;;;;;;19.70;7.70;;;;;;;-1.75;100.00;100792.61;105406;1271;60817;-76
2022/03/08 05:38:09;;;;;;;25.40;9.90;;;;;;;-1.67;100.00;100794.23;105293;1271;73402;-77
2022/03/08 05:41:03;;;;;;;23.80;8.60;;;;;;;-1.56;100.00;100790.58;104496;1271;1002893;-76
2022/03/08 05:43:51;;;;;;;22.70;8.10;;;;;;;-1.45;100.00;100795.78;105335;1271;71746;-78
2022/03/08 05:46:44;;;;;;;18.10;6.30;;;;;;;-1.35;100.00;100792.85;105318;1274;59576;-75
2022/03/08 05:49:31;;;;;;;18.00;5.90;;;;;;;-1.19;100.00;100800.93;106106;1274;60540;-77
2022/03/08 05:52:19;;;;;;;14.50;5.20;;;;;;;-1.06;99.97;100801.39;104656;1274;73403;-78
2022/03/08 05:55:07;;;;;;;15.70;5.20;;;;;;;-0.94;99.99;100791.25;104956;1274;68153;-77
2022/03/08 05:57:55;;;;;;;15.60;5.00;;;;;;;-0.76;99.56;100800.16;104942;1274;72698;-76
2022/03/08 06:00:43;;;;;;;17.40;5.60;;;;;;;-0.62;98.96;100802.14;105680;1271;59733;-73
2022/03/08 06:03:34;;;;;;;14.20;4.60;;;;;;;-0.50;98.49;100808.52;105558;1271;61068;-77
2022/03/08 06:06:21;;;;;;;13.90;4.60;;;;;;;-0.40;97.83;100807.97;104857;1271;72983;-76
2022/03/08 06:09:09;;;;;;;14.80;4.60;;;;;;;-0.31;97.15;100807.10;104931;1271;65561;-77
2022/03/08 06:12:00;;;;;;;11.40;4.10;;;;;;;-0.21;97.24;100812.83;105168;1272;71645;-77
2022/03/08 06:14:48;;;;;;;13.70;4.20;;;;;;;-0.10;96.88;100819.02;105191;1271;59573;-76
2022/03/08 06:17:36;;;;;;;13.40;4.20;;;;;;;0.01;96.24;100814.78;105497;1273;59744;-77
2022/03/08 06:20:23;;;;;;;12.20;4.40;;;;;;;0.12;95.81;100812.45;105186;1271;73411;-77
2022/03/08 06:23:10;;;;;;;14.00;4.50;;;;;;;0.27;95.43;100812.81;105063;1273;68058;-77
2022/03/08 06:25:58;;;;;;;15.10;4.50;;;;;;;0.44;95.22;100815.73;105147;1271;72903;-77
2022/03/08 06:28:46;;;;;;;12.80;4.30;;;;;;;0.63;95.09;100815.61;105383;1274;59827;-78
2022/03/08 06:31:33;;;;;;;11.10;4.30;;;;;;;0.84;94.25;100813.36;105383;1271;60742;-75
2022/03/08 06:34:22;;;;;;;12.20;4.80;;;;;;;1.04;93.48;100807.45;104898;1273;70440;-79
2022/03/08 06:37:12;;;;;;;13.40;4.50;;;;;;;1.23;92.95;100809.20;105280;1271;68159;-78
2022/03/08 06:39:59;;;;;;;10.20;4.30;;;;;;;1.40;91.95;100806.65;105697;1271;73079;-79
2022/03/08 06:42:49;;;;;;;14.10;5.60;;;;;;;1.51;90.51;100793.20;104949;1271;59673;-77
2022/03/08 06:45:37;;;;;;;12.30;4.70;;;;;;;1.50;89.77;100786.23;105472;1271;59818;-76
2022/03/08 06:48:24;;;;;;;13.60;5.70;;;;;;;1.46;89.68;100789.85;105235;1271;73108;-78
2022/03/08 06:51:14;;;;;;;16.50;5.90;;;;;;;1.42;89.18;100785.76;105243;1271;66995;-77
2022/03/08 06:54:05;;;;;;;15.90;6.10;;;;;;;1.42;88.92;100784.91;105252;1271;72952;-77
2022/03/08 06:56:52;;;;;;;15.60;6.20;;;;;;;1.55;89.39;100792.40;105390;1271;59784;-73
2022/03/08 06:59:43;;;;;;;14.70;5.70;;;;;;;1.76;88.78;100791.98;105392;1271;59963;-73
2022/03/08 07:02:32;;;;;;;13.50;4.30;;;;;;;1.91;87.88;100796.77;104943;1271;73754;-72
2022/03/08 07:05:22;;;;;;;10.80;3.80;;;;;;;1.99;86.76;100794.95;105298;1271;66869;-73
2022/03/08 07:08:09;;;;;;;11.80;3.80;;;;;;;2.07;85.69;100795.05;105324;1271;70883;-74
2022/03/08 07:10:57;;;;;;;13.70;4.00;;;;;;;2.65;85.18;100790.39;105377;1271;59758;-75
2022/03/08 07:13:44;;;;;;;13.10;4.20;;;;;;;4.49;83.01;100784.98;105505;1272;60353;-73
2022/03/08 07:16:34;;;;;;;11.40;3.40;;;;;;;6.55;76.49;100778.77;104622;1271;1003364;-75
2022/03/08 07:19:21;;;;;;;8.80;3.20;;;;;;;8.24;69.04;100779.63;105424;1271;66577;-76
2022/03/08 07:22:08;;;;;;;10.80;3.40;;;;;;;9.78;64.47;100778.27;105179;1271;71864;-76
2022/03/08 07:24:55;;;;;;;8.40;3.00;;;;;;;11.10;58.64;100775.71;105115;1271;59645;-75
2022/03/08 07:27:43;;;;;;;8.50;3.00;;;;;;;12.26;53.92;100781.42;105113;1271;60589;-76
2022/03/08 07:30:31;;;;;;;8.30;2.80;;;;;;;13.22;47.01;100777.65;105340;1271;73436;-76
2022/03/08 07:33:18;;;;;;;8.10;2.80;;;;;;;13.99;45.62;100770.85;105299;1271;66931;-77
2022/03/08 07:36:06;;;;;;;7.30;2.80;;;;;;;14.86;44.46;100768.80;105270;1273;71694;-76
2022/03/08 07:38:53;;;;;;;8.60;2.80;;;;;;;15.59;40.86;100765.89;105065;1273;59618;-74
2022/03/08 07:41:41;;;;;;;9.70;2.90;;;;;;;16.10;38.90;100757.71;105103;1274;59861;-76
2022/03/08 07:44:28;;;;;;;7.40;2.60;;;;;;;16.67;37.34;100761.30;104726;1273;73734;-77
2022/03/08 07:47:16;;;;;;;7.90;2.40;;;;;;;17.20;35.52;100750.48;104870;1273;68098;-75
2022/03/08 07:50:06;;;;;;;8.80;2.40;;;;;;;17.53;34.14;100748.57;104921;1274;72924;-75
2022/03/08 07:52:53;;;;;;;7.50;2.60;;;;;;;17.98;33.07;100755.56;105325;1273;60012;-75
2022/03/08 07:55:40;;;;;;;8.30;2.50;;;;;;;18.38;32.42;100749.13;105263;1274;60750;-75
2022/03/08 07:58:27;;;;;;;8.00;2.50;;;;;;;18.73;31.29;100751.15;105152;1273;73302;-75
2022/03/08 08:01:14;;;;;;;8.20;2.80;;;;;;;19.15;30.19;100749.52;105032;1273;68399;-78
2022/03/08 08:04:03;;;;;;;8.20;2.70;;;;;;;19.48;29.62;100752.71;105273;1273;72891;-74
2022/03/08 08:06:51;;;;;;;8.90;2.80;;;;;;;19.78;28.51;100748.70;105011;1274;59647;-75
2022/03/08 08:09:42;;;;;;;8.90;2.80;;;;;;;20.10;28.00;100751.48;106034;1271;59712;-77
2022/03/08 08:12:34;;;;;;;7.50;2.80;;;;;;;20.57;27.53;100742.05;105222;1273;72007;-74
2022/03/08 08:15:22;;;;;;;8.00;2.60;;;;;;;20.88;26.23;100746.55;105371;1271;68676;-81
2022/03/08 08:18:10;;;;;;;7.90;2.50;;;;;;;21.04;26.18;100747.86;104917;1274;73939;-78
2022/03/08 08:21:01;;;;;;;6.80;2.30;;;;;;;21.30;25.32;100742.70;105115;1274;59899;-77
2022/03/08 08:24:01;;;;;;;7.10;2.40;;;;;;;21.51;24.78;100741.77;105078;1274;59775;-80
2022/03/08 08:26:49;;;;;;;7.50;2.70;;;;;;;21.66;23.69;100739.66;105238;1274;72135;-77
2022/03/08 08:29:36;;;;;;;7.50;2.40;;;;;;;21.39;23.24;100732.96;105234;1274;68300;-78
2022/03/08 08:32:23;;;;;;;7.70;2.30;;;;;;;21.18;23.08;100733.56;104850;1274;72211;-77
2022/03/08 08:35:12;;;;;;;9.00;2.30;;;;;;;21.13;23.29;100730.09;105419;1277;59693;-77
2022/03/08 08:38:00;;;;;;;7.20;2.40;;;;;;;21.30;23.41;100725.86;105066;1274;59953;-75
2022/03/08 08:40:47;;;;;;;6.90;2.10;;;;;;;21.22;22.97;100724.55;105010;1274;72175;-79
2022/03/08 08:43:36;;;;;;;6.30;1.70;;;;;;;21.29;22.77;100722.30;104698;1274;68364;-78
2022/03/08 08:46:24;;;;;;;7.70;1.90;;;;;;;21.62;22.41;100719.53;105185;1274;71693;-78
2022/03/08 08:49:14;;;;;;;5.90;1.50;;;;;;;21.92;21.79;100712.83;105113;1274;59793;-79
2022/03/08 08:52:03;;;;;;;6.40;1.40;;;;;;;22.00;21.38;100702.58;105015;1271;59636;-80
2022/03/08 08:54:50;;;;;;;5.90;1.50;;;;;;;22.18;21.70;100697.55;105153;1271;71068;-79
2022/03/08 08:57:39;;;;;;;6.50;1.50;;;;;;;22.18;21.47;100690.58;105155;1271;66769;-79
2022/03/08 09:00:26;;;;;;;7.90;1.60;;;;;;;22.28;20.69;100684.25;104916;1271;73022;-79
2022/03/08 09:03:17;;;;;;;7.20;2.00;;;;;;;22.43;20.88;100682.61;105178;1271;59762;-79
2022/03/08 09:06:10;;;;;;;6.60;2.10;;;;;;;21.62;21.20;100679.98;105042;1271;59660;-79
2022/03/08 09:08:57;;;;;;;7.20;2.30;;;;;;;20.89;21.48;100679.07;105228;1271;71986;-79
2022/03/08 09:11:45;;;;;;;6.70;1.80;;;;;;;21.04;22.19;100676.33;105101;1274;67015;-80
2022/03/08 09:14:32;;;;;;;6.60;2.00;;;;;;;21.60;21.81;100667.28;105068;1271;71031;-80
2022/03/08 09:17:19;;;;;;;6.90;2.20;;;;;;;22.12;21.26;100661.82;104997;1271;59663;-77
2022/03/08 09:20:08;;;;;;;6.80;2.20;;;;;;;22.52;21.03;100661.11;105166;1271;60439;-77
2022/03/08 09:22:58;;;;;;;7.20;2.50;;;;;;;22.85;20.76;100654.96;105466;1271;72275;-78
2022/03/08 09:25:46;;;;;;;10.50;4.10;;;;;;;22.88;20.49;100651.89;105110;1271;68594;-77
2022/03/08 09:28:33;;;;;;;12.90;3.80;;;;;;;22.75;21.21;100646.55;105186;1271;73467;-78
2022/03/08 09:31:21;;;;;;;10.30;3.80;;;;;;;22.76;21.31;100646.31;105403;1271;59834;-78
2022/03/08 09:34:08;;;;;;;10.00;4.00;;;;;;;22.72;21.29;100642.79;105203;1271;59664;-77
2022/03/08 09:36:55;;;;;;;10.20;3.90;;;;;;;22.69;21.09;100642.02;105859;1271;71863;-76
2022/03/08 09:39:42;;;;;;;9.10;3.30;;;;;;;22.76;20.68;100633.72;105552;1271;66790;-76
2022/03/08 09:42:30;;;;;;;11.10;3.50;;;;;;;22.71;20.79;100629.50;105140;1271;71754;-76
2022/03/08 09:45:19;;;;;;;8.80;2.90;;;;;;;22.65;20.76;100625.95;105258;1273;59685;-80
2022/03/08 09:48:06;;;;;;;8.20;3.00;;;;;;;22.51;20.43;100624.19;105214;1273;60525;-77
2022/03/08 09:50:54;;;;;;;9.40;3.10;;;;;;;22.07;20.33;100620.70;104828;1273;73306;-78
2022/03/08 09:53:44;;;;;;;10.00;3.00;;;;;;;21.25;21.16;100625.25;105538;1272;68293;-78
2022/03/08 09:56:32;;;;;;;8.70;3.00;;;;;;;21.36;21.56;100628.80;104983;1271;73001;-75
2022/03/08 09:59:20;;;;;;;7.80;1.90;;;;;;;21.35;21.02;100633.55;105327;1271;59640;-78
2022/03/08 10:02:13;;;;;;;8.20;1.70;;;;;;;21.30;20.95;100639.98;105163;1271;59691;-77
2022/03/08 10:05:07;;;;;;;8.10;1.90;;;;;;;20.33;21.81;100646.08;105105;1271;72201;-75
2022/03/08 10:08:21;;;;;;;7.40;2.40;;;;;;;19.87;22.34;100642.38;105007;1271;67918;-77
2022/03/08 10:11:12;;;;;;;6.70;2.40;;;;;;;20.60;22.33;100649.10;105138;1273;72977;-76
2022/03/08 10:14:11;;;;;;;8.20;2.20;;;;;;;21.36;21.33;100641.24;105461;1273;59809;-77
2022/03/08 10:16:57;;;;;;;6.80;1.90;;;;;;;21.72;20.48;100643.86;105361;1273;61539;-76
2022/03/08 10:19:49;;;;;;;7.20;1.80;;;;;;;21.77;20.41;100645.04;105348;1274;72014;-76
2022/03/08 10:22:41;;;;;;;7.10;1.70;;;;;;;22.21;20.42;100642.38;105254;1273;68121;-75
2022/03/08 10:25:31;;;;;;;8.50;2.40;;;;;;;21.75;20.44;100641.88;105315;1273;72934;-76
2022/03/08 10:28:18;;;;;;;7.30;2.00;;;;;;;21.77;20.54;100637.31;104967;1274;59598;-74
2022/03/08 10:31:12;;;;;;;8.30;2.60;;;;;;;22.10;20.73;100638.48;104926;1274;59658;-76
2022/03/08 10:34:09;;;;;;;6.80;2.10;;;;;;;22.74;19.95;100639.61;105197;1274;72190;-76
2022/03/08 10:37:12;;;;;;;9.60;2.30;;;;;;;22.95;19.88;100635.82;105465;1272;69144;-76
2022/03/08 10:40:10;;;;;;;10.70;2.90;;;;;;;23.75;19.09;100640.58;105158;1273;72235;-74
2022/03/08 10:43:15;;;;;;;8.90;2.30;;;;;;;23.85;18.86;100632.45;105197;1273;59719;-76
2022/03/08 10:46:17;;;;;;;10.00;2.50;;;;;;;23.41;19.19;100635.31;105545;1273;59621;-77
2022/03/08 10:49:15;;;;;;;7.20;2.40;;;;;;;23.47;19.18;100643.55;105249;1274;72352;-76
2022/03/08 10:52:05;;;;;;;7.90;2.50;;;;;;;22.72;19.57;100641.99;105413;1274;68868;-76
2022/03/08 10:54:52;;;;;;;6.90;2.30;;;;;;;22.43;20.15;100646.76;105792;1274;73048;-76
2022/03/08 10:57:43;;;;;;;9.20;2.60;;;;;;;22.82;20.21;100641.64;105025;1274;59740;-74
2022/03/08 11:00:38;;;;;;;8.00;2.70;;;;;;;23.26;19.66;100634.84;105046;1274;59628;-77
2022/03/08 11:03:26;;;;;;;8.70;2.80;;;;;;;22.78;19.47;100629.98;104893;1274;72062;-75
2022/03/08 11:06:13;;;;;;;8.50;2.70;;;;;;;22.45;20.25;100633.90;104956;1274;67923;-77
2022/03/08 11:09:00;;;;;;;8.00;2.80;;;;;;;22.74;20.22;100625.13;104778;1274;73212;-75
2022/03/08 11:11:48;;;;;;;8.10;3.00;;;;;;;22.58;19.80;100628.36;105144;1274;59781;-77
2022/03/08 11:14:35;;;;;;;7.60;2.80;;;;;;;22.11;20.67;100632.86;105158;1274;59676;-76
2022/03/08 11:17:24;;;;;;;6.70;2.30;;;;;;;22.12;20.99;100624.89;105211;1274;72008;-77
2022/03/08 11:20:13;;;;;;;7.50;1.70;;;;;;;22.36;20.28;100625.40;104996;1271;67859;-76
2022/03/08 11:23:01;;;;;;;6.20;1.60;;;;;;;22.44;20.50;100618.48;104930;1271;74365;-78
2022/03/08 11:25:48;;;;;;;6.40;1.60;;;;;;;22.67;20.00;100613.04;105385;1271;59672;-77
2022/03/08 11:28:38;;;;;;;7.50;1.70;;;;;;;22.72;20.06;100612.71;105043;1271;60701;-76
2022/03/08 11:31:32;;;;;;;6.60;1.60;;;;;;;22.82;20.32;100612.59;105238;1272;73470;-77
2022/03/08 11:34:32;;;;;;;7.30;2.30;;;;;;;22.93;20.05;100608.61;105653;1271;66992;-77
2022/03/08 11:37:24;;;;;;;6.10;1.50;;;;;;;22.91;20.31;100604.16;105330;1271;72147;-76
2022/03/08 11:40:14;;;;;;;6.00;1.60;;;;;;;22.93;19.93;100604.65;105326;1271;59605;-77
2022/03/08 11:43:07;;;;;;;6.50;1.70;;;;;;;22.65;19.98;100600.27;105286;1271;60732;-75
2022/03/08 11:46:19;;;;;;;6.40;1.60;;;;;;;22.29;20.35;100602.41;105376;1273;73468;-76
2022/03/08 11:49:07;;;;;;;5.90;1.50;;;;;;;21.56;20.58;100600.88;105206;1273;66811;-74
2022/03/08 11:52:17;;;;;;;6.80;1.70;;;;;;;21.34;21.20;100597.30;105043;1273;72186;-75
2022/03/08 11:55:14;;;;;;;7.00;1.40;;;;;;;21.00;21.20;100592.64;105347;1273;59654;-74
2022/03/08 11:58:09;;;;;;;6.40;1.80;;;;;;;20.77;21.55;100599.61;104940;1273;60835;-76
2022/03/08 12:00:59;;;;;;;6.00;1.70;;;;;;;20.53;21.78;100599.33;105336;1273;72447;-75
2022/03/08 12:03:52;;;;;;;7.20;2.20;;;;;;;19.97;22.58;100597.93;105474;1273;68194;-74
2022/03/08 12:06:41;;;;;;;13.20;2.10;;;;;;;19.75;23.06;100599.23;105166;1273;71618;-77
2022/03/08 12:09:29;;;;;;;6.30;1.80;;;;;;;19.42;23.17;100595.38;105133;1273;59819;-77
2022/03/08 12:12:20;;;;;;;7.70;2.30;;;;;;;19.04;23.60;100594.53;105212;1273;59676;-76
2022/03/08 12:15:07;;;;;;;7.40;2.00;;;;;;;18.90;24.07;100587.48;105094;1273;72088;-78
2022/03/08 12:18:18;;;;;;;8.70;2.30;;;;;;;18.88;23.81;100592.77;105261;1271;67798;-77
2022/03/08 12:21:17;;;;;;;7.50;2.40;;;;;;;18.81;23.73;100589.36;105266;1271;72897;-77
2022/03/08 12:24:18;;;;;;;9.20;2.60;;;;;;;18.73;23.99;100587.44;105415;1271;59757;-77
2022/03/08 12:27:07;;;;;;;7.70;2.70;;;;;;;18.82;24.15;100587.98;104986;1271;60713;-77
2022/03/08 12:30:16;;;;;;;9.00;2.90;;;;;;;18.59;24.26;100591.80;105177;1273;73835;-75
2022/03/08 12:33:03;;;;;;;6.50;2.20;;;;;;;18.12;24.75;100591.70;104878;1273;68376;-76
2022/03/08 12:35:54;;;;;;;7.00;2.30;;;;;;;17.86;24.66;100595.16;104978;1274;73007;-76
2022/03/08 12:38:41;;;;;;;6.20;2.00;;;;;;;17.50;24.84;100597.84;104973;1273;59792;-76
2022/03/08 12:41:28;;;;;;;7.30;2.50;;;;;;;17.05;25.70;100597.90;105277;1271;60485;-75
2022/03/08 12:44:20;;;;;;;6.80;2.00;;;;;;;16.55;26.31;100593.48;105224;1274;71966;-77
2022/03/08 12:47:08;;;;;;;7.80;2.20;;;;;;;16.07;27.36;100593.61;105163;1273;66607;-76
2022/03/08 12:50:01;;;;;;;7.00;2.20;;;;;;;15.58;27.84;100601.63;105164;1273;73085;-76